createdAt,value
2023-03-29T00:02:13.347Z,73.06
2023-03-29T00:04:42.849Z,73.64
2023-03-29T00:07:10.887Z,74.70
2023-03-29T00:09:42.002Z,74.91
2023-03-29T00:12:12.115Z,73.92
2023-03-29T00:14:42.099Z,74.36
2023-03-29T00:17:10.315Z,74.53
2023-03-29T00:19:40.075Z,74.49
2023-03-29T00:22:12.512Z,75.18
2023-03-29T00:24:42.493Z,75.06
2023-03-29T00:27:11.323Z,74.72
2023-03-29T00:29:40.402Z,74.61
2023-03-29T00:32:09.914Z,74.89
2023-03-29T00:34:38.131Z,75.15
2023-03-29T00:37:10.301Z,76.10
2023-03-29T00:39:43.637Z,75.65
2023-03-29T00:42:15.428Z,75.49
2023-03-29T00:45:08.351Z,75.30
2023-03-29T00:47:50.845Z,75.21
2023-03-29T00:50:31.737Z,75.73
2023-03-29T00:53:28.725Z,76.22
2023-03-29T00:56:12.060Z,75.85
2023-03-29T00:59:05.115Z,76.77
2023-03-29T01:01:45.579Z,75.64
2023-03-29T01:04:33.154Z,76.19
2023-03-29T01:07:18.299Z,77.86
2023-03-29T01:09:55.237Z,78.80
2023-03-29T01:12:35.240Z,79.66
2023-03-29T01:15:18.179Z,80.26
2023-03-29T01:17:55.612Z,80.83
2023-03-29T01:20:51.293Z,80.42
2023-03-29T01:24:13.359Z,79.98
2023-03-29T01:27:16.257Z,81.11
2023-03-29T01:29:56.065Z,81.20
2023-03-29T01:32:28.127Z,82.09
2023-03-29T01:35:04.275Z,82.11
2023-03-29T01:37:37.874Z,82.38
2023-03-29T01:40:07.335Z,81.94
2023-03-29T01:42:56.304Z,81.29
2023-03-29T01:45:39.666Z,82.03
2023-03-29T01:48:17.589Z,82.24
2023-03-29T01:50:57.344Z,80.50
2023-03-29T01:53:32.153Z,78.17
2023-03-29T01:56:08.115Z,78.31
2023-03-29T01:58:45.155Z,79.58
2023-03-29T02:01:24.146Z,79.37
2023-03-29T02:03:59.108Z,79.93
2023-03-29T02:06:31.625Z,80.42
2023-03-29T02:09:05.093Z,80.54
2023-03-29T02:11:36.520Z,79.99
2023-03-29T02:14:06.860Z,78.37
2023-03-29T02:16:40.955Z,78.39
2023-03-29T02:19:11.702Z,79.38
2023-03-29T02:21:46.298Z,78.85
2023-03-29T02:24:21.416Z,78.92
2023-03-29T02:26:51.769Z,78.35
2023-03-29T02:29:22.202Z,77.96
2023-03-29T02:32:02.534Z,78.54
2023-03-29T02:34:41.732Z,78.69
2023-03-29T02:37:17.965Z,78.75
2023-03-29T02:39:52.588Z,78.93
2023-03-29T02:42:28.565Z,79.11
2023-03-29T02:45:02.083Z,79.61
2023-03-29T02:47:38.592Z,79.95
2023-03-29T02:50:14.809Z,79.71
2023-03-29T02:52:53.164Z,80.07
2023-03-29T02:55:31.380Z,80.04
2023-03-29T02:58:07.105Z,79.83
2023-03-29T03:00:41.311Z,80.19
2023-03-29T03:03:11.441Z,80.03
2023-03-29T03:05:43.787Z,80.33
2023-03-29T03:08:14.124Z,80.70
2023-03-29T03:10:48.245Z,80.74
2023-03-29T03:13:18.321Z,81.18
2023-03-29T03:15:49.305Z,82.17
2023-03-29T03:18:19.101Z,83.00
2023-03-29T03:21:00.431Z,83.07
2023-03-29T03:23:30.631Z,83.53
2023-03-29T03:26:04.037Z,84.38
2023-03-29T03:28:34.303Z,84.50
2023-03-29T03:31:10.376Z,84.67
2023-03-29T03:33:46.146Z,84.90
2023-03-29T03:36:17.232Z,85.38
2023-03-29T03:38:48.987Z,85.26
2023-03-29T03:41:28.936Z,85.58
2023-03-29T03:44:00.894Z,86.53
2023-03-29T03:46:41.066Z,86.25
2023-03-29T03:49:13.967Z,86.70
2023-03-29T03:51:46.152Z,86.85
2023-03-29T03:54:15.837Z,87.20
2023-03-29T03:56:49.918Z,87.50
2023-03-29T03:59:19.419Z,87.45
2023-03-29T04:01:52.833Z,87.38
2023-03-29T04:04:25.705Z,87.43
2023-03-29T04:06:54.577Z,87.16
2023-03-29T04:09:33.156Z,87.44
2023-03-29T04:12:06.745Z,86.67
2023-03-29T04:14:36.195Z,86.39
2023-03-29T04:17:06.229Z,86.36
2023-03-29T04:19:37.689Z,86.45
2023-03-29T04:22:08.532Z,86.24
2023-03-29T04:24:39.859Z,86.71
2023-03-29T04:27:11.950Z,86.75
2023-03-29T04:29:44.923Z,86.96
2023-03-29T04:32:17.176Z,86.54
2023-03-29T04:34:49.162Z,86.43
2023-03-29T04:37:22.355Z,85.71
2023-03-29T04:39:53.369Z,84.73
2023-03-29T04:42:24.262Z,83.33
2023-03-29T04:44:54.141Z,82.12
2023-03-29T04:47:25.182Z,80.89
2023-03-29T04:49:58.176Z,79.35
2023-03-29T04:52:33.169Z,79.70
2023-03-29T04:55:02.735Z,78.25
2023-03-29T04:57:31.729Z,78.29
2023-03-29T04:59:59.029Z,76.76
2023-03-29T05:02:32.402Z,76.50
2023-03-29T05:05:00.175Z,74.94
2023-03-29T05:07:27.975Z,74.51
2023-03-29T05:09:55.500Z,74.18
2023-03-29T05:12:22.894Z,73.69
2023-03-29T05:14:52.028Z,73.33
2023-03-29T05:17:21.682Z,73.12
2023-03-29T05:19:49.375Z,72.78
2023-03-29T05:22:21.647Z,72.41
2023-03-29T05:24:49.998Z,72.71
2023-03-29T05:27:17.583Z,72.29
2023-03-29T05:29:51.587Z,72.06
2023-03-29T05:32:27.450Z,71.08
2023-03-29T05:35:11.223Z,70.28
2023-03-29T05:37:52.833Z,71.00
2023-03-29T05:40:30.603Z,71.04
2023-03-29T05:43:03.286Z,70.46
2023-03-29T05:45:30.529Z,69.80
2023-03-29T05:47:58.296Z,69.23
2023-03-29T05:50:26.467Z,70.08
2023-03-29T05:52:56.162Z,69.31
2023-03-29T05:55:25.189Z,69.20
2023-03-29T05:57:56.682Z,68.26
2023-03-29T06:00:25.218Z,67.67
2023-03-29T06:03:03.727Z,68.33
2023-03-29T06:05:40.393Z,67.90
2023-03-29T06:08:08.942Z,66.83
2023-03-29T06:10:38.048Z,67.06
2023-03-29T06:13:07.108Z,67.02
2023-03-29T06:15:36.210Z,65.64
2023-03-29T06:18:06.111Z,66.25
2023-03-29T06:20:34.218Z,65.13
2023-03-29T06:23:04.248Z,63.85
2023-03-29T06:25:32.186Z,61.47
2023-03-29T06:27:59.522Z,59.40
2023-03-29T06:30:29.166Z,59.21
2023-03-29T06:32:59.518Z,57.49
2023-03-29T06:35:28.309Z,57.89
2023-03-29T06:37:57.860Z,59.21
2023-03-29T06:40:26.143Z,57.72
2023-03-29T06:43:01.262Z,58.29
2023-03-29T06:45:35.715Z,57.83
2023-03-29T06:48:06.026Z,58.61
2023-03-29T06:50:37.691Z,59.17
2023-03-29T06:53:07.821Z,57.78
2023-03-29T06:55:36.341Z,59.03
2023-03-29T06:58:09.292Z,57.14
2023-03-29T07:00:39.675Z,56.84
2023-03-29T07:03:14.454Z,58.22
2023-03-29T07:05:45.256Z,57.43
2023-03-29T07:08:15.449Z,58.10
2023-03-29T07:10:48.980Z,56.69
2023-03-29T07:13:19.314Z,55.48
2023-03-29T07:15:50.100Z,56.64
2023-03-29T07:18:18.470Z,55.97
2023-03-29T07:20:48.440Z,56.11
2023-03-29T07:23:18.053Z,56.81
2023-03-29T07:25:46.449Z,55.22
2023-03-29T07:28:13.795Z,55.28
2023-03-29T07:30:41.451Z,53.70
2023-03-29T07:33:14.693Z,52.05
2023-03-29T07:35:45.129Z,52.20
2023-03-29T07:38:13.195Z,53.00
2023-03-29T07:40:41.975Z,47.75
2023-03-29T07:43:13.783Z,46.65
2023-03-29T07:45:42.425Z,43.75
2023-03-29T07:48:10.056Z,43.81
2023-03-29T07:50:43.219Z,45.78
2023-03-29T07:53:12.775Z,45.57
2023-03-29T07:55:47.822Z,45.70
2023-03-29T07:58:17.629Z,44.00
2023-03-29T08:00:48.865Z,44.47
2023-03-29T08:03:19.548Z,43.40
2023-03-29T08:05:47.472Z,42.75
2023-03-29T08:08:14.980Z,43.04
2023-03-29T08:10:44.772Z,41.00
2023-03-29T08:13:13.876Z,41.92
2023-03-29T08:15:46.268Z,41.41
2023-03-29T08:18:18.250Z,42.88
2023-03-29T08:20:45.813Z,41.14
2023-03-29T08:23:12.990Z,41.76
2023-03-29T08:25:43.307Z,42.92
2023-03-29T08:28:10.699Z,43.20
2023-03-29T08:30:39.953Z,46.56
2023-03-29T08:33:08.844Z,43.31
2023-03-29T08:35:36.900Z,42.19
2023-03-29T08:38:05.636Z,44.18
2023-03-29T08:40:34.873Z,42.59
2023-03-29T08:43:07.710Z,42.08
2023-03-29T08:45:42.296Z,42.03
2023-03-29T08:48:35.138Z,42.81
2023-03-29T08:51:15.442Z,40.81
2023-03-29T08:53:48.418Z,43.18
2023-03-29T08:56:23.097Z,42.78
2023-03-29T08:58:54.509Z,40.94
2023-03-29T09:01:28.765Z,44.31
2023-03-29T09:04:11.825Z,41.72
2023-03-29T09:06:41.048Z,44.58
2023-03-29T09:09:17.473Z,43.00
2023-03-29T09:12:04.085Z,45.66
2023-03-29T09:14:52.228Z,46.00
2023-03-29T09:17:44.657Z,44.62
2023-03-29T09:20:36.782Z,44.81
2023-03-29T09:23:42.463Z,45.30
2023-03-29T09:26:31.978Z,39.75
2023-03-29T09:29:38.349Z,41.21
2023-03-29T09:32:45.742Z,40.77
2023-03-29T09:35:57.487Z,41.51
2023-03-29T09:38:33.710Z,43.17
2023-03-29T09:41:24.531Z,44.75
2023-03-29T09:43:55.419Z,42.12
2023-03-29T09:47:02.303Z,40.92
2023-03-29T09:49:46.496Z,41.93
2023-03-29T09:52:21.334Z,43.58
2023-03-29T09:54:49.667Z,45.29
2023-03-29T09:57:20.885Z,44.31
2023-03-29T09:59:53.176Z,44.65
2023-03-29T10:02:22.136Z,42.99
2023-03-29T10:05:04.201Z,43.06
2023-03-29T10:14:19.477Z,43.08
2023-03-29T10:16:47.825Z,43.11
2023-03-29T10:19:21.926Z,42.73
2023-03-29T10:21:52.968Z,42.16
2023-03-29T10:24:25.874Z,46.25
2023-03-29T10:27:01.568Z,42.62
2023-03-29T10:29:36.838Z,43.51
2023-03-29T10:32:35.874Z,44.43
2023-03-29T10:35:13.566Z,42.55
2023-03-29T10:37:49.182Z,43.63
2023-03-29T10:40:35.143Z,43.82
2023-03-29T10:43:24.770Z,46.78
2023-03-29T10:46:07.650Z,43.65
2023-03-29T10:48:37.706Z,42.58
2023-03-29T10:51:06.416Z,44.02
2023-03-29T10:53:36.597Z,42.13
2023-03-29T10:56:08.133Z,44.64
2023-03-29T10:58:44.602Z,44.56
2023-03-29T11:01:26.621Z,45.16
2023-03-29T11:04:00.161Z,43.73
2023-03-29T11:06:41.032Z,45.47
2023-03-29T11:09:52.266Z,45.84
2023-03-29T11:12:52.271Z,43.40
2023-03-29T11:16:17.978Z,45.65
2023-03-29T11:19:01.151Z,43.82
2023-03-29T11:21:38.353Z,43.79
2023-03-29T11:24:25.649Z,43.48
2023-03-29T11:27:08.084Z,43.24
2023-03-29T11:30:13.307Z,39.85
2023-03-29T11:32:55.993Z,43.06
2023-03-29T11:35:45.597Z,40.10
2023-03-29T11:39:11.400Z,39.21
2023-03-29T11:41:43.465Z,41.56
2023-03-29T11:44:19.622Z,40.81
2023-03-29T11:46:50.639Z,43.16
2023-03-29T11:49:30.102Z,44.10
2023-03-29T11:52:11.696Z,44.43
2023-03-29T11:55:10.333Z,46.37
2023-03-29T11:57:53.974Z,46.92
2023-03-29T12:00:27.614Z,44.90
2023-03-29T12:02:55.303Z,44.25
2023-03-29T12:05:29.283Z,44.17
2023-03-29T12:08:01.097Z,42.40
2023-03-29T12:10:39.346Z,43.94
2023-03-29T12:13:17.109Z,43.51
2023-03-29T12:15:52.794Z,43.40
2023-03-29T12:18:27.308Z,44.37
2023-03-29T12:21:01.448Z,43.49
2023-03-29T12:23:34.719Z,44.00
2023-03-29T12:26:07.562Z,42.20
2023-03-29T12:29:06.956Z,41.17
2023-03-29T12:31:49.286Z,43.36
2023-03-29T12:34:35.330Z,44.32
2023-03-29T12:37:17.658Z,43.54
2023-03-29T12:39:51.592Z,43.51
2023-03-29T12:42:24.432Z,43.94
2023-03-29T12:44:59.051Z,43.54
2023-03-29T12:47:33.774Z,43.75
2023-03-29T12:50:02.496Z,43.34
2023-03-29T12:52:37.081Z,44.89
2023-03-29T12:55:49.253Z,45.47
2023-03-29T12:58:39.851Z,43.43
2023-03-29T13:01:25.673Z,43.32
2023-03-29T13:04:11.407Z,44.42
2023-03-29T13:06:50.146Z,42.26
2023-03-29T13:09:39.008Z,42.39
2023-03-29T13:12:45.251Z,44.62
2023-03-29T13:15:19.186Z,45.55
2023-03-29T13:18:04.620Z,44.37
2023-03-29T13:20:47.243Z,45.82
2023-03-29T13:23:30.101Z,44.64
2023-03-29T13:26:32.214Z,45.94
2023-03-29T13:29:14.629Z,46.39
2023-03-29T13:32:13.369Z,44.38
2023-03-29T13:35:02.773Z,44.19
2023-03-29T13:37:56.488Z,43.48
2023-03-29T13:40:58.422Z,41.25
2023-03-29T13:43:39.620Z,43.70
2023-03-29T13:46:29.832Z,43.47
2023-03-29T13:49:17.595Z,43.19
2023-03-29T13:52:39.550Z,43.95
2023-03-29T13:55:54.698Z,42.07
2023-03-29T13:58:52.010Z,43.02
2023-03-29T14:01:42.405Z,44.07
2023-03-29T14:04:27.066Z,45.21
2023-03-29T14:07:01.529Z,43.53
2023-03-29T14:09:43.657Z,43.58
2023-03-29T14:12:15.856Z,44.82
2023-03-29T14:14:58.848Z,43.00
2023-03-29T14:17:33.341Z,42.52
2023-03-29T14:20:08.927Z,42.87
2023-03-29T14:22:37.945Z,41.17
2023-03-29T14:25:19.699Z,43.21
2023-03-29T14:27:48.734Z,42.48
2023-03-29T14:30:31.742Z,41.95
2023-03-29T14:33:01.338Z,42.92
2023-03-29T14:35:34.158Z,41.82
2023-03-29T14:38:06.825Z,41.89
2023-03-29T14:40:42.207Z,42.80
2023-03-29T14:43:22.512Z,41.16
2023-03-29T14:45:53.441Z,41.27
2023-03-29T14:48:25.850Z,41.50
2023-03-29T14:50:57.674Z,42.49
2023-03-29T14:53:34.759Z,42.85
2023-03-29T14:56:18.579Z,42.17
2023-03-29T14:58:51.695Z,42.90
2023-03-29T15:01:27.967Z,42.89
2023-03-29T15:04:08.501Z,42.13
2023-03-29T15:06:41.762Z,42.79
2023-03-29T15:09:18.596Z,42.40
2023-03-29T15:12:00.232Z,43.31
2023-03-29T15:14:34.881Z,43.44
2023-03-29T15:17:31.282Z,42.44
2023-03-29T15:20:25.442Z,43.63
2023-03-29T15:23:20.729Z,41.61
2023-03-29T15:26:08.608Z,42.38
2023-03-29T15:29:10.418Z,41.88
2023-03-29T15:31:45.304Z,43.10
2023-03-29T15:34:26.639Z,43.97
2023-03-29T15:37:06.634Z,43.39
2023-03-29T15:39:41.479Z,43.50
2023-03-29T15:42:15.596Z,44.23
2023-03-29T15:44:50.056Z,43.08
2023-03-29T15:47:24.250Z,43.52
2023-03-29T15:49:57.283Z,44.17
2023-03-29T15:52:28.466Z,44.67
2023-03-29T15:55:13.475Z,44.15
2023-03-29T15:57:55.985Z,43.70
2023-03-29T16:00:33.376Z,44.68
2023-03-29T16:03:17.334Z,45.74
2023-03-29T16:05:51.214Z,46.83
2023-03-29T16:08:31.450Z,46.88
2023-03-29T16:11:04.088Z,46.03
2023-03-29T16:13:36.063Z,47.49
2023-03-29T16:16:20.186Z,48.33
2023-03-29T16:18:50.245Z,48.05
2023-03-29T16:21:29.236Z,49.73
2023-03-29T16:24:00.232Z,49.38
2023-03-29T16:26:31.751Z,50.76
2023-03-29T16:29:05.945Z,50.68
2023-03-29T16:31:44.188Z,50.39
2023-03-29T16:34:26.831Z,51.57
2023-03-29T16:36:56.683Z,51.83
2023-03-29T16:39:29.786Z,53.16
2023-03-29T16:42:03.572Z,52.68
2023-03-29T16:44:36.207Z,54.03
2023-03-29T16:47:10.814Z,55.32
2023-03-29T16:49:46.125Z,56.36
2023-03-29T16:52:22.233Z,57.48
2023-03-29T16:55:01.049Z,58.64
2023-03-29T16:57:38.424Z,60.11
2023-03-29T17:00:22.254Z,60.47
2023-03-29T17:03:01.905Z,61.65
2023-03-29T17:05:41.836Z,60.74
2023-03-29T17:08:16.411Z,63.19
2023-03-29T17:11:01.106Z,64.62
2023-03-29T17:13:34.340Z,64.53
2023-03-29T17:16:08.689Z,64.61
2023-03-29T17:18:47.993Z,63.75
2023-03-29T17:21:18.303Z,66.13
2023-03-29T17:23:58.379Z,65.02
2023-03-29T17:26:29.242Z,64.58
2023-03-29T17:29:02.769Z,64.66
2023-03-29T17:31:38.431Z,65.50
2023-03-29T17:34:17.259Z,66.33
2023-03-29T17:36:55.291Z,66.13
2023-03-29T17:39:31.253Z,65.33
2023-03-29T17:42:09.674Z,66.56
2023-03-29T17:44:43.928Z,67.43
2023-03-29T17:47:24.310Z,66.99
2023-03-29T17:50:01.344Z,67.10
2023-03-29T17:52:38.044Z,66.90
2023-03-29T17:55:21.088Z,67.42
2023-03-29T17:57:55.401Z,67.71
2023-03-29T18:00:30.985Z,67.92
2023-03-29T18:03:07.285Z,69.28
2023-03-29T18:05:45.868Z,68.37
2023-03-29T18:08:24.158Z,69.37
2023-03-29T18:11:07.071Z,69.89
2023-03-29T18:13:47.868Z,70.64
2023-03-29T18:16:23.171Z,69.55
2023-03-29T18:18:56.210Z,70.85
2023-03-29T18:21:30.563Z,70.78
2023-03-29T18:24:01.248Z,71.48
2023-03-29T18:26:38.669Z,70.22
2023-03-29T18:29:17.683Z,70.92
2023-03-29T18:31:53.680Z,71.05
2023-03-29T18:34:40.154Z,70.81
2023-03-29T18:37:14.591Z,71.68
2023-03-29T18:39:53.521Z,72.46
2023-03-29T18:42:27.644Z,72.59
2023-03-29T18:45:00.919Z,72.11
2023-03-29T18:47:31.792Z,72.59
2023-03-29T18:50:07.736Z,72.57
2023-03-29T18:52:44.759Z,72.19
2023-03-29T18:55:14.202Z,73.66
2023-03-29T18:57:56.128Z,73.00
2023-03-29T19:00:25.235Z,72.73
2023-03-29T19:02:59.596Z,73.78
2023-03-29T19:05:48.982Z,73.43
2023-03-29T19:08:33.222Z,73.66
2023-03-29T19:11:09.751Z,74.31
2023-03-29T19:13:43.245Z,74.88
2023-03-29T19:16:16.841Z,74.62
2023-03-29T19:18:50.008Z,75.93
2023-03-29T19:21:35.980Z,75.62
2023-03-29T19:24:09.563Z,75.37
2023-03-29T19:26:42.405Z,76.28
2023-03-29T19:29:12.585Z,76.00
2023-03-29T19:31:51.269Z,76.19
2023-03-29T19:34:25.271Z,76.36
2023-03-29T19:37:04.195Z,75.16
2023-03-29T19:39:40.233Z,75.67
2023-03-29T19:42:14.005Z,75.43
2023-03-29T19:44:50.254Z,75.18
2023-03-29T19:47:24.824Z,75.30
2023-03-29T19:50:04.430Z,74.25
2023-03-29T19:52:37.847Z,73.80
2023-03-29T19:55:16.750Z,74.44
2023-03-29T19:57:52.618Z,74.61
2023-03-29T20:00:27.757Z,73.99
2023-03-29T20:03:06.644Z,74.25
2023-03-29T20:05:42.575Z,74.35
2023-03-29T20:08:19.276Z,74.29
2023-03-29T20:11:02.158Z,74.65
2023-03-29T20:13:42.526Z,75.29
2023-03-29T20:16:24.146Z,73.38
2023-03-29T20:18:54.867Z,72.89
2023-03-29T20:21:38.749Z,74.28
2023-03-29T20:24:12.264Z,75.30
2023-03-29T20:26:43.175Z,75.86
2023-03-29T20:29:17.857Z,75.91
2023-03-29T20:31:55.391Z,76.35
2023-03-29T20:34:35.379Z,76.79
2023-03-29T20:37:09.706Z,76.30
2023-03-29T20:39:53.474Z,75.88
2023-03-29T20:42:28.728Z,76.09
2023-03-29T20:45:07.877Z,77.37
2023-03-29T20:47:44.175Z,77.69
2023-03-29T20:50:33.880Z,78.38
2023-03-29T20:53:13.138Z,79.13
2023-03-29T20:55:51.055Z,80.34
2023-03-29T20:58:33.045Z,80.20
2023-03-29T21:01:07.793Z,80.73
2023-03-29T21:03:42.896Z,80.50
2023-03-29T21:06:20.603Z,81.23
2023-03-29T21:09:00.735Z,81.79
2023-03-29T21:11:33.317Z,82.02
2023-03-29T21:14:06.898Z,81.25
2023-03-29T21:16:43.683Z,82.52
2023-03-29T21:19:18.925Z,82.39
2023-03-29T21:21:52.677Z,82.89
2023-03-29T21:24:31.839Z,83.89
2023-03-29T21:27:02.849Z,83.74
2023-03-29T21:29:36.478Z,84.19
2023-03-29T21:32:11.316Z,84.76
2023-03-29T21:34:45.223Z,85.08
2023-03-29T21:37:24.338Z,85.56
2023-03-29T21:40:05.026Z,85.99
2023-03-29T21:42:36.624Z,86.09
2023-03-29T21:45:10.064Z,86.46
2023-03-29T21:47:45.450Z,87.00
2023-03-29T21:50:23.073Z,87.48
2023-03-29T21:53:01.902Z,87.03
2023-03-29T21:55:43.100Z,85.88
2023-03-29T21:58:14.730Z,85.89
2023-03-29T22:00:50.028Z,86.52
2023-03-29T22:03:25.324Z,87.37
2023-03-29T22:06:04.321Z,87.73
2023-03-29T22:08:39.065Z,88.16
2023-03-29T22:11:17.857Z,88.16
2023-03-29T22:13:57.124Z,88.78
2023-03-29T22:16:37.149Z,89.28
2023-03-29T22:19:12.339Z,89.88
2023-03-29T22:21:48.083Z,89.87
2023-03-29T22:24:29.021Z,89.54
2023-03-29T22:27:03.326Z,88.38
2023-03-29T22:29:40.444Z,87.92
2023-03-29T22:32:17.435Z,87.89
2023-03-29T22:34:55.601Z,87.62
2023-03-29T22:37:29.529Z,88.46
2023-03-29T22:39:59.133Z,89.06
2023-03-29T22:42:34.259Z,89.44
2023-03-29T22:45:08.702Z,89.58
2023-03-29T22:47:48.534Z,89.79
2023-03-29T22:50:28.333Z,90.34
2023-03-29T22:53:04.663Z,90.66
2023-03-29T22:55:36.318Z,91.07
2023-03-29T22:58:10.440Z,91.06
2023-03-29T23:00:39.157Z,90.34
2023-03-29T23:03:12.497Z,89.98
2023-03-29T23:06:01.137Z,89.81
2023-03-29T23:08:35.839Z,90.24
2023-03-29T23:11:08.302Z,89.64
2023-03-29T23:13:53.191Z,89.54
2023-03-29T23:16:26.848Z,89.35
2023-03-29T23:19:00.804Z,89.23
2023-03-29T23:21:32.672Z,88.29
2023-03-29T23:24:05.845Z,89.14
2023-03-29T23:26:39.657Z,88.54
2023-03-29T23:29:11.316Z,87.01
2023-03-29T23:31:50.417Z,87.34
2023-03-29T23:34:22.604Z,87.97
2023-03-29T23:36:56.366Z,88.84
2023-03-29T23:39:29.734Z,89.32
2023-03-29T23:42:03.682Z,89.37
2023-03-29T23:44:41.776Z,89.52
2023-03-29T23:47:16.392Z,89.51
2023-03-29T23:49:49.333Z,88.98
2023-03-29T23:52:25.330Z,88.41
2023-03-29T23:55:10.185Z,87.63
2023-03-29T23:57:52.297Z,86.67
